sensor_id;sensor_type;location;lat;lon;timestamp;P1;durP1;ratioP1;P2;durP2;ratioP2
8500;SDS011;4288;48.484;10.024;2023-04-06T00:00:13;13.37;;;6.10;;
8500;SDS011;4288;48.484;10.024;2023-04-06T00:02:41;11.30;;;5.27;;
8500;SDS011;4288;48.484;10.024;2023-04-06T00:05:08;9.37;;;5.90;;
8500;SDS011;4288;48.484;10.024;2023-04-06T00:07:35;12.17;;;6.57;;
8500;SDS011;4288;48.484;10.024;2023-04-06T00:10:04;16.63;;;6.97;;
8500;SDS011;4288;48.484;10.024;2023-04-06T00:12:32;12.13;;;5.80;;
8500;SDS011;4288;48.484;10.024;2023-04-06T00:14:59;11.07;;;5.60;;
8500;SDS011;4288;48.484;10.024;2023-04-06T00:17:26;12.50;;;5.73;;
8500;SDS011;4288;48.484;10.024;2023-04-06T00:19:54;13.33;;;5.50;;
8500;SDS011;4288;48.484;10.024;2023-04-06T00:22:21;7.87;;;5.43;;
8500;SDS011;4288;48.484;10.024;2023-04-06T00:24:47;12.23;;;6.17;;
8500;SDS011;4288;48.484;10.024;2023-04-06T00:27:16;9.80;;;4.87;;
8500;SDS011;4288;48.484;10.024;2023-04-06T00:29:43;15.07;;;7.13;;
8500;SDS011;4288;48.484;10.024;2023-04-06T00:32:10;10.47;;;5.80;;
8500;SDS011;4288;48.484;10.024;2023-04-06T00:34:37;10.10;;;5.60;;
8500;SDS011;4288;48.484;10.024;2023-04-06T00:37:04;7.97;;;5.27;;
8500;SDS011;4288;48.484;10.024;2023-04-06T00:39:31;7.60;;;4.97;;
8500;SDS011;4288;48.484;10.024;2023-04-06T00:41:58;9.13;;;5.80;;
8500;SDS011;4288;48.484;10.024;2023-04-06T00:44:26;7.07;;;5.00;;
8500;SDS011;4288;48.484;10.024;2023-04-06T00:46:53;11.40;;;6.07;;
8500;SDS011;4288;48.484;10.024;2023-04-06T00:49:20;8.63;;;5.77;;
8500;SDS011;4288;48.484;10.024;2023-04-06T00:51:47;13.47;;;5.57;;
8500;SDS011;4288;48.484;10.024;2023-04-06T00:54:14;6.47;;;4.93;;
8500;SDS011;4288;48.484;10.024;2023-04-06T00:56:41;8.57;;;4.93;;
8500;SDS011;4288;48.484;10.024;2023-04-06T00:59:09;14.73;;;6.43;;
8500;SDS011;4288;48.484;10.024;2023-04-06T01:01:38;11.57;;;5.70;;
8500;SDS011;4288;48.484;10.024;2023-04-06T01:04:05;10.00;;;5.80;;
8500;SDS011;4288;48.484;10.024;2023-04-06T01:06:32;8.90;;;5.30;;
8500;SDS011;4288;48.484;10.024;2023-04-06T01:08:59;11.13;;;6.43;;
8500;SDS011;4288;48.484;10.024;2023-04-06T01:11:26;19.57;;;5.20;;
8500;SDS011;4288;48.484;10.024;2023-04-06T01:13:53;11.77;;;6.53;;
8500;SDS011;4288;48.484;10.024;2023-04-06T01:16:20;11.90;;;6.03;;
8500;SDS011;4288;48.484;10.024;2023-04-06T01:18:48;14.50;;;7.57;;
8500;SDS011;4288;48.484;10.024;2023-04-06T01:21:15;12.53;;;6.20;;
8500;SDS011;4288;48.484;10.024;2023-04-06T01:23:44;8.27;;;5.40;;
8500;SDS011;4288;48.484;10.024;2023-04-06T01:26:12;10.20;;;5.80;;
8500;SDS011;4288;48.484;10.024;2023-04-06T01:28:39;11.70;;;6.30;;
8500;SDS011;4288;48.484;10.024;2023-04-06T01:31:06;12.83;;;6.30;;
8500;SDS011;4288;48.484;10.024;2023-04-06T01:33:34;9.70;;;5.90;;
8500;SDS011;4288;48.484;10.024;2023-04-06T01:36:01;8.73;;;5.40;;
8500;SDS011;4288;48.484;10.024;2023-04-06T01:38:29;11.50;;;7.40;;
8500;SDS011;4288;48.484;10.024;2023-04-06T01:40:57;10.97;;;6.00;;
8500;SDS011;4288;48.484;10.024;2023-04-06T01:43:24;8.60;;;5.93;;
8500;SDS011;4288;48.484;10.024;2023-04-06T01:45:51;14.03;;;5.93;;
8500;SDS011;4288;48.484;10.024;2023-04-06T01:48:18;11.33;;;6.30;;
8500;SDS011;4288;48.484;10.024;2023-04-06T01:50:45;13.27;;;6.37;;
8500;SDS011;4288;48.484;10.024;2023-04-06T01:53:12;9.77;;;5.50;;
8500;SDS011;4288;48.484;10.024;2023-04-06T01:55:39;9.73;;;5.70;;
8500;SDS011;4288;48.484;10.024;2023-04-06T01:58:08;13.23;;;7.00;;
8500;SDS011;4288;48.484;10.024;2023-04-06T02:00:35;16.23;;;8.07;;
8500;SDS011;4288;48.484;10.024;2023-04-06T02:03:02;20.43;;;9.63;;
8500;SDS011;4288;48.484;10.024;2023-04-06T02:05:29;14.80;;;7.60;;
8500;SDS011;4288;48.484;10.024;2023-04-06T02:07:58;12.67;;;5.70;;
8500;SDS011;4288;48.484;10.024;2023-04-06T02:10:25;13.40;;;6.97;;
8500;SDS011;4288;48.484;10.024;2023-04-06T02:12:52;12.13;;;6.67;;
8500;SDS011;4288;48.484;10.024;2023-04-06T02:15:20;10.93;;;5.87;;
8500;SDS011;4288;48.484;10.024;2023-04-06T02:17:47;12.43;;;5.90;;
8500;SDS011;4288;48.484;10.024;2023-04-06T02:20:14;8.53;;;5.13;;
8500;SDS011;4288;48.484;10.024;2023-04-06T02:22:41;14.63;;;6.20;;
8500;SDS011;4288;48.484;10.024;2023-04-06T02:25:08;8.30;;;5.43;;
8500;SDS011;4288;48.484;10.024;2023-04-06T02:27:35;13.90;;;6.50;;
8500;SDS011;4288;48.484;10.024;2023-04-06T02:30:02;12.07;;;5.73;;
8500;SDS011;4288;48.484;10.024;2023-04-06T02:32:31;15.50;;;6.93;;
8500;SDS011;4288;48.484;10.024;2023-04-06T02:34:58;10.20;;;6.70;;
8500;SDS011;4288;48.484;10.024;2023-04-06T02:37:25;8.37;;;5.30;;
8500;SDS011;4288;48.484;10.024;2023-04-06T02:39:52;12.13;;;5.67;;
8500;SDS011;4288;48.484;10.024;2023-04-06T02:42:20;10.57;;;5.70;;
8500;SDS011;4288;48.484;10.024;2023-04-06T02:44:46;14.03;;;6.97;;
8500;SDS011;4288;48.484;10.024;2023-04-06T02:47:13;9.60;;;6.10;;
8500;SDS011;4288;48.484;10.024;2023-04-06T02:49:42;14.50;;;7.07;;
8500;SDS011;4288;48.484;10.024;2023-04-06T02:52:09;14.47;;;6.47;;
8500;SDS011;4288;48.484;10.024;2023-04-06T02:54:36;14.70;;;7.13;;
8500;SDS011;4288;48.484;10.024;2023-04-06T02:57:03;12.87;;;6.80;;
8500;SDS011;4288;48.484;10.024;2023-04-06T02:59:30;13.53;;;6.97;;
8500;SDS011;4288;48.484;10.024;2023-04-06T03:01:57;15.47;;;8.30;;
8500;SDS011;4288;48.484;10.024;2023-04-06T03:04:24;12.70;;;6.27;;
8500;SDS011;4288;48.484;10.024;2023-04-06T03:06:53;11.83;;;5.73;;
8500;SDS011;4288;48.484;10.024;2023-04-06T03:09:20;10.57;;;5.83;;
8500;SDS011;4288;48.484;10.024;2023-04-06T03:11:47;10.37;;;6.33;;
8500;SDS011;4288;48.484;10.024;2023-04-06T03:14:14;16.00;;;7.20;;
8500;SDS011;4288;48.484;10.024;2023-04-06T03:16:42;15.33;;;6.70;;
8500;SDS011;4288;48.484;10.024;2023-04-06T03:19:09;8.57;;;5.67;;
8500;SDS011;4288;48.484;10.024;2023-04-06T03:21:36;12.83;;;6.83;;
8500;SDS011;4288;48.484;10.024;2023-04-06T03:24:05;10.87;;;6.93;;
8500;SDS011;4288;48.484;10.024;2023-04-06T03:26:33;12.63;;;6.00;;
8500;SDS011;4288;48.484;10.024;2023-04-06T03:29:00;10.33;;;5.77;;
8500;SDS011;4288;48.484;10.024;2023-04-06T03:31:27;12.37;;;8.80;;
8500;SDS011;4288;48.484;10.024;2023-04-06T03:33:54;10.60;;;6.10;;
8500;SDS011;4288;48.484;10.024;2023-04-06T03:36:21;10.30;;;6.77;;
8500;SDS011;4288;48.484;10.024;2023-04-06T03:38:48;10.53;;;5.83;;
8500;SDS011;4288;48.484;10.024;2023-04-06T03:41:16;14.80;;;7.43;;
8500;SDS011;4288;48.484;10.024;2023-04-06T03:43:43;13.70;;;6.97;;
8500;SDS011;4288;48.484;10.024;2023-04-06T03:46:10;12.27;;;6.90;;
8500;SDS011;4288;48.484;10.024;2023-04-06T03:48:37;10.40;;;6.77;;
8500;SDS011;4288;48.484;10.024;2023-04-06T03:51:04;11.87;;;7.00;;
8500;SDS011;4288;48.484;10.024;2023-04-06T03:53:31;16.70;;;6.80;;
8500;SDS011;4288;48.484;10.024;2023-04-06T03:55:58;19.93;;;6.37;;
8500;SDS011;4288;48.484;10.024;2023-04-06T03:58:26;12.60;;;6.30;;
8500;SDS011;4288;48.484;10.024;2023-04-06T04:00:53;13.67;;;7.10;;
8500;SDS011;4288;48.484;10.024;2023-04-06T04:03:20;11.70;;;6.97;;
8500;SDS011;4288;48.484;10.024;2023-04-06T04:05:48;12.50;;;7.10;;
8500;SDS011;4288;48.484;10.024;2023-04-06T04:08:16;14.87;;;7.20;;
8500;SDS011;4288;48.484;10.024;2023-04-06T04:10:42;17.10;;;7.10;;
8500;SDS011;4288;48.484;10.024;2023-04-06T04:13:09;14.40;;;8.43;;
8500;SDS011;4288;48.484;10.024;2023-04-06T04:15:38;19.53;;;6.60;;
8500;SDS011;4288;48.484;10.024;2023-04-06T04:18:05;14.30;;;7.77;;
8500;SDS011;4288;48.484;10.024;2023-04-06T04:20:32;13.17;;;5.83;;
8500;SDS011;4288;48.484;10.024;2023-04-06T04:22:59;13.50;;;6.63;;
8500;SDS011;4288;48.484;10.024;2023-04-06T04:25:26;15.13;;;6.47;;
8500;SDS011;4288;48.484;10.024;2023-04-06T04:27:53;12.40;;;6.90;;
8500;SDS011;4288;48.484;10.024;2023-04-06T04:30:19;12.90;;;6.80;;
8500;SDS011;4288;48.484;10.024;2023-04-06T04:32:48;10.33;;;6.07;;
8500;SDS011;4288;48.484;10.024;2023-04-06T04:35:15;9.10;;;5.20;;
8500;SDS011;4288;48.484;10.024;2023-04-06T04:37:42;12.00;;;6.57;;
8500;SDS011;4288;48.484;10.024;2023-04-06T04:40:09;10.13;;;6.00;;
8500;SDS011;4288;48.484;10.024;2023-04-06T04:42:37;8.43;;;5.93;;
8500;SDS011;4288;48.484;10.024;2023-04-06T04:45:04;12.87;;;6.80;;
8500;SDS011;4288;48.484;10.024;2023-04-06T04:47:31;10.57;;;6.53;;
8500;SDS011;4288;48.484;10.024;2023-04-06T04:50:00;11.43;;;5.80;;
8500;SDS011;4288;48.484;10.024;2023-04-06T04:52:26;11.43;;;6.47;;
8500;SDS011;4288;48.484;10.024;2023-04-06T04:54:53;13.70;;;6.97;;
8500;SDS011;4288;48.484;10.024;2023-04-06T04:57:20;17.43;;;6.30;;
8500;SDS011;4288;48.484;10.024;2023-04-06T04:59:47;12.90;;;6.30;;
8500;SDS011;4288;48.484;10.024;2023-04-06T05:02:15;11.30;;;7.00;;
8500;SDS011;4288;48.484;10.024;2023-04-06T05:04:42;14.93;;;6.63;;
8500;SDS011;4288;48.484;10.024;2023-04-06T05:07:11;12.03;;;6.47;;
8500;SDS011;4288;48.484;10.024;2023-04-06T05:09:38;11.57;;;6.60;;
8500;SDS011;4288;48.484;10.024;2023-04-06T05:12:05;11.93;;;6.93;;
8500;SDS011;4288;48.484;10.024;2023-04-06T05:14:32;13.37;;;6.87;;
8500;SDS011;4288;48.484;10.024;2023-04-06T05:16:59;21.00;;;9.77;;
8500;SDS011;4288;48.484;10.024;2023-04-06T05:19:26;19.13;;;9.43;;
8500;SDS011;4288;48.484;10.024;2023-04-06T05:21:53;19.60;;;10.20;;
8500;SDS011;4288;48.484;10.024;2023-04-06T05:24:21;18.13;;;8.30;;
8500;SDS011;4288;48.484;10.024;2023-04-06T05:26:48;14.53;;;8.13;;
8500;SDS011;4288;48.484;10.024;2023-04-06T05:29:15;16.90;;;8.80;;
8500;SDS011;4288;48.484;10.024;2023-04-06T05:31:43;13.50;;;7.67;;
8500;SDS011;4288;48.484;10.024;2023-04-06T05:34:10;12.13;;;7.60;;
8500;SDS011;4288;48.484;10.024;2023-04-06T05:36:37;19.90;;;7.93;;
8500;SDS011;4288;48.484;10.024;2023-04-06T05:39:05;31.80;;;10.87;;
8500;SDS011;4288;48.484;10.024;2023-04-06T05:41:33;37.20;;;15.83;;
8500;SDS011;4288;48.484;10.024;2023-04-06T05:44:00;24.63;;;11.53;;
8500;SDS011;4288;48.484;10.024;2023-04-06T05:46:27;29.00;;;13.10;;
8500;SDS011;4288;48.484;10.024;2023-04-06T05:48:54;31.60;;;12.30;;
8500;SDS011;4288;48.484;10.024;2023-04-06T05:51:21;29.23;;;11.67;;
8500;SDS011;4288;48.484;10.024;2023-04-06T05:53:48;27.50;;;11.40;;
8500;SDS011;4288;48.484;10.024;2023-04-06T05:56:15;23.53;;;9.70;;
8500;SDS011;4288;48.484;10.024;2023-04-06T05:58:44;20.13;;;8.97;;
8500;SDS011;4288;48.484;10.024;2023-04-06T06:01:10;15.83;;;8.23;;
8500;SDS011;4288;48.484;10.024;2023-04-06T06:03:37;19.17;;;8.00;;
8500;SDS011;4288;48.484;10.024;2023-04-06T06:06:04;12.87;;;7.47;;
8500;SDS011;4288;48.484;10.024;2023-04-06T06:08:31;12.07;;;6.87;;
8500;SDS011;4288;48.484;10.024;2023-04-06T06:10:58;18.50;;;8.60;;
8500;SDS011;4288;48.484;10.024;2023-04-06T06:13:25;11.50;;;7.77;;
8500;SDS011;4288;48.484;10.024;2023-04-06T06:15:54;13.30;;;7.00;;
8500;SDS011;4288;48.484;10.024;2023-04-06T06:18:21;10.17;;;7.77;;
8500;SDS011;4288;48.484;10.024;2023-04-06T06:20:48;12.83;;;8.00;;
8500;SDS011;4288;48.484;10.024;2023-04-06T06:23:15;17.00;;;8.30;;
8500;SDS011;4288;48.484;10.024;2023-04-06T06:25:42;20.77;;;11.00;;
8500;SDS011;4288;48.484;10.024;2023-04-06T06:28:09;14.33;;;9.60;;
8500;SDS011;4288;48.484;10.024;2023-04-06T06:30:35;16.90;;;9.30;;
8500;SDS011;4288;48.484;10.024;2023-04-06T06:33:04;12.43;;;7.63;;
8500;SDS011;4288;48.484;10.024;2023-04-06T06:35:31;11.57;;;7.17;;
8500;SDS011;4288;48.484;10.024;2023-04-06T06:37:58;17.50;;;7.97;;
8500;SDS011;4288;48.484;10.024;2023-04-06T06:40:25;16.03;;;8.57;;
8500;SDS011;4288;48.484;10.024;2023-04-06T06:42:52;15.40;;;7.90;;
8500;SDS011;4288;48.484;10.024;2023-04-06T06:45:19;13.60;;;8.63;;
8500;SDS011;4288;48.484;10.024;2023-04-06T06:47:46;12.57;;;7.70;;
8500;SDS011;4288;48.484;10.024;2023-04-06T06:50:14;19.43;;;8.53;;
8500;SDS011;4288;48.484;10.024;2023-04-06T06:52:41;15.83;;;10.50;;
8500;SDS011;4288;48.484;10.024;2023-04-06T06:55:08;22.60;;;11.40;;
8500;SDS011;4288;48.484;10.024;2023-04-06T06:57:36;16.43;;;9.80;;
8500;SDS011;4288;48.484;10.024;2023-04-06T07:00:04;22.30;;;11.20;;
8500;SDS011;4288;48.484;10.024;2023-04-06T07:02:33;15.33;;;9.00;;
8500;SDS011;4288;48.484;10.024;2023-04-06T07:05:01;12.10;;;8.73;;
8500;SDS011;4288;48.484;10.024;2023-04-06T07:07:30;15.17;;;9.33;;
8500;SDS011;4288;48.484;10.024;2023-04-06T07:09:57;14.83;;;8.60;;
8500;SDS011;4288;48.484;10.024;2023-04-06T07:12:24;9.00;;;7.20;;
8500;SDS011;4288;48.484;10.024;2023-04-06T07:14:51;12.73;;;7.40;;
8500;SDS011;4288;48.484;10.024;2023-04-06T07:17:18;13.83;;;8.60;;
8500;SDS011;4288;48.484;10.024;2023-04-06T07:19:45;13.40;;;8.00;;
8500;SDS011;4288;48.484;10.024;2023-04-06T07:22:12;14.57;;;8.63;;
8500;SDS011;4288;48.484;10.024;2023-04-06T07:24:40;14.97;;;9.50;;
8500;SDS011;4288;48.484;10.024;2023-04-06T07:27:07;17.60;;;9.53;;
8500;SDS011;4288;48.484;10.024;2023-04-06T07:29:34;19.40;;;10.10;;
8500;SDS011;4288;48.484;10.024;2023-04-06T07:32:01;23.80;;;11.67;;
8500;SDS011;4288;48.484;10.024;2023-04-06T07:34:28;17.00;;;8.57;;
8500;SDS011;4288;48.484;10.024;2023-04-06T07:36:55;14.30;;;9.50;;
8500;SDS011;4288;48.484;10.024;2023-04-06T07:39:22;16.37;;;9.67;;
8500;SDS011;4288;48.484;10.024;2023-04-06T07:41:52;13.63;;;10.03;;
8500;SDS011;4288;48.484;10.024;2023-04-06T07:44:19;17.57;;;8.57;;
8500;SDS011;4288;48.484;10.024;2023-04-06T07:46:46;12.00;;;8.33;;
8500;SDS011;4288;48.484;10.024;2023-04-06T07:49:13;13.03;;;9.17;;
8500;SDS011;4288;48.484;10.024;2023-04-06T07:51:40;15.93;;;10.70;;
8500;SDS011;4288;48.484;10.024;2023-04-06T07:54:07;15.90;;;8.80;;
8500;SDS011;4288;48.484;10.024;2023-04-06T07:56:34;22.53;;;10.10;;
8500;SDS011;4288;48.484;10.024;2023-04-06T07:59:02;13.83;;;8.73;;
8500;SDS011;4288;48.484;10.024;2023-04-06T08:01:29;16.00;;;8.90;;
8500;SDS011;4288;48.484;10.024;2023-04-06T08:03:56;15.47;;;10.00;;
8500;SDS011;4288;48.484;10.024;2023-04-06T08:06:24;13.97;;;9.03;;
8500;SDS011;4288;48.484;10.024;2023-04-06T08:08:51;15.53;;;8.77;;
8500;SDS011;4288;48.484;10.024;2023-04-06T08:11:18;13.93;;;9.70;;
8500;SDS011;4288;48.484;10.024;2023-04-06T08:13:45;14.10;;;10.10;;
8500;SDS011;4288;48.484;10.024;2023-04-06T08:16:13;80.73;;;10.30;;
8500;SDS011;4288;48.484;10.024;2023-04-06T08:18:40;26.13;;;8.40;;
8500;SDS011;4288;48.484;10.024;2023-04-06T08:21:07;17.60;;;9.60;;
8500;SDS011;4288;48.484;10.024;2023-04-06T08:23:35;20.10;;;10.17;;
8500;SDS011;4288;48.484;10.024;2023-04-06T08:26:02;16.30;;;10.53;;
8500;SDS011;4288;48.484;10.024;2023-04-06T08:28:29;13.60;;;9.70;;
8500;SDS011;4288;48.484;10.024;2023-04-06T08:30:55;21.07;;;9.20;;
8500;SDS011;4288;48.484;10.024;2023-04-06T08:33:24;14.03;;;10.27;;
8500;SDS011;4288;48.484;10.024;2023-04-06T08:35:51;19.93;;;9.87;;
8500;SDS011;4288;48.484;10.024;2023-04-06T08:38:18;19.73;;;9.47;;
8500;SDS011;4288;48.484;10.024;2023-04-06T08:40:45;16.30;;;9.70;;
8500;SDS011;4288;48.484;10.024;2023-04-06T08:43:14;12.60;;;9.70;;
8500;SDS011;4288;48.484;10.024;2023-04-06T08:45:41;15.77;;;10.03;;
8500;SDS011;4288;48.484;10.024;2023-04-06T08:48:09;10.23;;;8.30;;
8500;SDS011;4288;48.484;10.024;2023-04-06T08:50:37;23.63;;;10.67;;
8500;SDS011;4288;48.484;10.024;2023-04-06T08:53:04;20.03;;;9.07;;
8500;SDS011;4288;48.484;10.024;2023-04-06T08:55:32;22.67;;;10.97;;
8500;SDS011;4288;48.484;10.024;2023-04-06T08:58:00;15.50;;;8.70;;
8500;SDS011;4288;48.484;10.024;2023-04-06T09:00:27;14.13;;;9.83;;
8500;SDS011;4288;48.484;10.024;2023-04-06T09:02:54;21.40;;;11.00;;
8500;SDS011;4288;48.484;10.024;2023-04-06T09:05:23;18.93;;;9.67;;
8500;SDS011;4288;48.484;10.024;2023-04-06T09:07:52;23.50;;;12.30;;
8500;SDS011;4288;48.484;10.024;2023-04-06T09:10:19;23.40;;;11.43;;
8500;SDS011;4288;48.484;10.024;2023-04-06T09:12:48;21.30;;;11.70;;
8500;SDS011;4288;48.484;10.024;2023-04-06T09:15:19;20.57;;;10.80;;
8500;SDS011;4288;48.484;10.024;2023-04-06T09:17:48;26.80;;;11.77;;
8500;SDS011;4288;48.484;10.024;2023-04-06T09:20:21;21.63;;;11.20;;
8500;SDS011;4288;48.484;10.024;2023-04-06T09:22:52;23.67;;;12.77;;
8500;SDS011;4288;48.484;10.024;2023-04-06T09:25:20;22.23;;;10.80;;
8500;SDS011;4288;48.484;10.024;2023-04-06T09:27:57;18.00;;;10.63;;
8500;SDS011;4288;48.484;10.024;2023-04-06T09:30:26;30.57;;;12.50;;
8500;SDS011;4288;48.484;10.024;2023-04-06T09:32:54;25.70;;;12.30;;
8500;SDS011;4288;48.484;10.024;2023-04-06T09:35:22;21.77;;;11.00;;
8500;SDS011;4288;48.484;10.024;2023-04-06T09:37:52;25.90;;;10.90;;
8500;SDS011;4288;48.484;10.024;2023-04-06T09:40:20;19.10;;;10.20;;
8500;SDS011;4288;48.484;10.024;2023-04-06T09:42:47;22.10;;;10.23;;
8500;SDS011;4288;48.484;10.024;2023-04-06T09:45:17;19.93;;;9.03;;
8500;SDS011;4288;48.484;10.024;2023-04-06T09:47:44;14.90;;;7.57;;
8500;SDS011;4288;48.484;10.024;2023-04-06T09:50:13;17.33;;;7.53;;
8500;SDS011;4288;48.484;10.024;2023-04-06T09:52:42;14.63;;;8.43;;
8500;SDS011;4288;48.484;10.024;2023-04-06T09:55:17;14.70;;;7.00;;
8500;SDS011;4288;48.484;10.024;2023-04-06T09:57:53;11.63;;;6.47;;
8500;SDS011;4288;48.484;10.024;2023-04-06T10:00:28;9.60;;;6.67;;
8500;SDS011;4288;48.484;10.024;2023-04-06T10:03:02;12.80;;;6.57;;
8500;SDS011;4288;48.484;10.024;2023-04-06T10:05:42;10.93;;;7.10;;
8500;SDS011;4288;48.484;10.024;2023-04-06T10:08:18;23.23;;;7.97;;
8500;SDS011;4288;48.484;10.024;2023-04-06T10:10:48;11.53;;;5.93;;
8500;SDS011;4288;48.484;10.024;2023-04-06T10:13:16;13.17;;;7.30;;
8500;SDS011;4288;48.484;10.024;2023-04-06T10:15:46;14.77;;;7.67;;
8500;SDS011;4288;48.484;10.024;2023-04-06T10:18:14;10.90;;;7.40;;
8500;SDS011;4288;48.484;10.024;2023-04-06T10:20:43;19.33;;;7.50;;
8500;SDS011;4288;48.484;10.024;2023-04-06T10:23:18;10.70;;;6.40;;
8500;SDS011;4288;48.484;10.024;2023-04-06T10:25:54;8.93;;;6.63;;
8500;SDS011;4288;48.484;10.024;2023-04-06T10:28:24;10.67;;;6.43;;
8500;SDS011;4288;48.484;10.024;2023-04-06T10:30:56;13.13;;;6.23;;
8500;SDS011;4288;48.484;10.024;2023-04-06T10:33:24;21.07;;;8.30;;
8500;SDS011;4288;48.484;10.024;2023-04-06T10:35:52;11.43;;;7.10;;
8500;SDS011;4288;48.484;10.024;2023-04-06T10:38:20;12.90;;;7.33;;
8500;SDS011;4288;48.484;10.024;2023-04-06T10:41:04;12.53;;;8.07;;
8500;SDS011;4288;48.484;10.024;2023-04-06T10:43:33;13.00;;;7.73;;
8500;SDS011;4288;48.484;10.024;2023-04-06T10:46:02;14.87;;;7.40;;
8500;SDS011;4288;48.484;10.024;2023-04-06T10:48:36;10.40;;;6.73;;
8500;SDS011;4288;48.484;10.024;2023-04-06T10:51:09;12.90;;;6.83;;
8500;SDS011;4288;48.484;10.024;2023-04-06T10:53:39;10.20;;;7.10;;
8500;SDS011;4288;48.484;10.024;2023-04-06T10:56:11;9.80;;;7.00;;
8500;SDS011;4288;48.484;10.024;2023-04-06T10:58:43;12.67;;;5.50;;
8500;SDS011;4288;48.484;10.024;2023-04-06T11:01:12;9.33;;;7.33;;
8500;SDS011;4288;48.484;10.024;2023-04-06T11:03:44;15.40;;;7.20;;
8500;SDS011;4288;48.484;10.024;2023-04-06T11:06:19;12.70;;;6.43;;
8500;SDS011;4288;48.484;10.024;2023-04-06T11:08:48;10.50;;;6.30;;
8500;SDS011;4288;48.484;10.024;2023-04-06T11:11:17;11.63;;;7.70;;
8500;SDS011;4288;48.484;10.024;2023-04-06T11:13:48;13.23;;;7.23;;
8500;SDS011;4288;48.484;10.024;2023-04-06T11:16:17;11.93;;;7.00;;
8500;SDS011;4288;48.484;10.024;2023-04-06T11:18:49;12.50;;;6.83;;
8500;SDS011;4288;48.484;10.024;2023-04-06T11:21:17;14.33;;;8.10;;
8500;SDS011;4288;48.484;10.024;2023-04-06T11:23:44;12.50;;;7.27;;
8500;SDS011;4288;48.484;10.024;2023-04-06T11:26:12;9.60;;;6.70;;
8500;SDS011;4288;48.484;10.024;2023-04-06T11:28:41;11.77;;;6.40;;
8500;SDS011;4288;48.484;10.024;2023-04-06T11:31:09;10.10;;;6.83;;
8500;SDS011;4288;48.484;10.024;2023-04-06T11:33:37;19.03;;;7.93;;
8500;SDS011;4288;48.484;10.024;2023-04-06T11:36:05;10.23;;;6.50;;
8500;SDS011;4288;48.484;10.024;2023-04-06T11:38:33;12.77;;;7.60;;
8500;SDS011;4288;48.484;10.024;2023-04-06T11:41:04;14.60;;;7.50;;
8500;SDS011;4288;48.484;10.024;2023-04-06T11:43:32;15.10;;;9.70;;
8500;SDS011;4288;48.484;10.024;2023-04-06T11:46:01;10.87;;;7.00;;
8500;SDS011;4288;48.484;10.024;2023-04-06T11:48:31;11.90;;;7.07;;
8500;SDS011;4288;48.484;10.024;2023-04-06T11:51:09;14.57;;;7.30;;
8500;SDS011;4288;48.484;10.024;2023-04-06T11:53:43;10.30;;;6.43;;
8500;SDS011;4288;48.484;10.024;2023-04-06T11:56:11;11.90;;;8.17;;
8500;SDS011;4288;48.484;10.024;2023-04-06T11:58:48;12.43;;;7.37;;
8500;SDS011;4288;48.484;10.024;2023-04-06T12:01:17;10.40;;;6.60;;
8500;SDS011;4288;48.484;10.024;2023-04-06T12:03:44;14.27;;;8.13;;
8500;SDS011;4288;48.484;10.024;2023-04-06T12:06:11;14.90;;;7.00;;
8500;SDS011;4288;48.484;10.024;2023-04-06T12:08:39;9.70;;;6.20;;
8500;SDS011;4288;48.484;10.024;2023-04-06T12:11:06;12.83;;;6.20;;
8500;SDS011;4288;48.484;10.024;2023-04-06T12:13:34;11.83;;;6.40;;
8500;SDS011;4288;48.484;10.024;2023-04-06T12:16:01;14.10;;;6.57;;
8500;SDS011;4288;48.484;10.024;2023-04-06T12:18:30;9.00;;;6.27;;
8500;SDS011;4288;48.484;10.024;2023-04-06T12:20:58;12.27;;;7.30;;
8500;SDS011;4288;48.484;10.024;2023-04-06T12:23:25;10.10;;;6.20;;
8500;SDS011;4288;48.484;10.024;2023-04-06T12:25:52;13.07;;;7.10;;
8500;SDS011;4288;48.484;10.024;2023-04-06T12:28:20;7.93;;;5.57;;
8500;SDS011;4288;48.484;10.024;2023-04-06T12:30:51;9.33;;;6.47;;
8500;SDS011;4288;48.484;10.024;2023-04-06T12:33:20;12.20;;;7.40;;
8500;SDS011;4288;48.484;10.024;2023-04-06T12:35:48;11.27;;;6.63;;
8500;SDS011;4288;48.484;10.024;2023-04-06T12:38:16;9.57;;;6.43;;
8500;SDS011;4288;48.484;10.024;2023-04-06T12:40:43;9.77;;;6.30;;
8500;SDS011;4288;48.484;10.024;2023-04-06T12:43:10;12.90;;;6.90;;
8500;SDS011;4288;48.484;10.024;2023-04-06T12:45:38;7.40;;;5.87;;
8500;SDS011;4288;48.484;10.024;2023-04-06T12:48:06;8.90;;;6.73;;
8500;SDS011;4288;48.484;10.024;2023-04-06T12:50:33;11.07;;;6.63;;
8500;SDS011;4288;48.484;10.024;2023-04-06T12:53:02;9.50;;;6.20;;
8500;SDS011;4288;48.484;10.024;2023-04-06T12:55:30;8.33;;;6.27;;
8500;SDS011;4288;48.484;10.024;2023-04-06T12:57:59;8.10;;;5.93;;
8500;SDS011;4288;48.484;10.024;2023-04-06T13:00:26;7.90;;;5.70;;
8500;SDS011;4288;48.484;10.024;2023-04-06T13:02:54;7.80;;;6.20;;
8500;SDS011;4288;48.484;10.024;2023-04-06T13:05:21;8.03;;;6.00;;
8500;SDS011;4288;48.484;10.024;2023-04-06T13:07:49;7.87;;;6.17;;
8500;SDS011;4288;48.484;10.024;2023-04-06T13:10:17;8.60;;;6.23;;
8500;SDS011;4288;48.484;10.024;2023-04-06T13:12:44;11.57;;;5.80;;
8500;SDS011;4288;48.484;10.024;2023-04-06T13:15:12;12.03;;;6.40;;
8500;SDS011;4288;48.484;10.024;2023-04-06T13:17:40;8.57;;;5.83;;
8500;SDS011;4288;48.484;10.024;2023-04-06T13:20:07;13.53;;;6.53;;
8500;SDS011;4288;48.484;10.024;2023-04-06T13:22:35;7.30;;;6.47;;
8500;SDS011;4288;48.484;10.024;2023-04-06T13:25:03;7.80;;;5.60;;
8500;SDS011;4288;48.484;10.024;2023-04-06T13:27:32;8.93;;;6.83;;
8500;SDS011;4288;48.484;10.024;2023-04-06T13:30:00;8.50;;;5.80;;
8500;SDS011;4288;48.484;10.024;2023-04-06T13:32:28;13.60;;;5.70;;
8500;SDS011;4288;48.484;10.024;2023-04-06T13:34:56;10.13;;;6.20;;
8500;SDS011;4288;48.484;10.024;2023-04-06T13:37:25;8.60;;;6.40;;
8500;SDS011;4288;48.484;10.024;2023-04-06T13:39:52;6.63;;;5.80;;
8500;SDS011;4288;48.484;10.024;2023-04-06T13:42:20;15.83;;;6.00;;
8500;SDS011;4288;48.484;10.024;2023-04-06T13:44:48;10.27;;;5.87;;
8500;SDS011;4288;48.484;10.024;2023-04-06T13:47:16;10.80;;;5.77;;
8500;SDS011;4288;48.484;10.024;2023-04-06T13:49:43;14.90;;;5.63;;
8500;SDS011;4288;48.484;10.024;2023-04-06T13:52:10;7.90;;;5.80;;
8500;SDS011;4288;48.484;10.024;2023-04-06T13:54:37;9.40;;;6.50;;
8500;SDS011;4288;48.484;10.024;2023-04-06T13:57:04;8.60;;;5.87;;
8500;SDS011;4288;48.484;10.024;2023-04-06T13:59:32;12.70;;;5.80;;
8500;SDS011;4288;48.484;10.024;2023-04-06T14:02:01;9.20;;;5.73;;
8500;SDS011;4288;48.484;10.024;2023-04-06T14:04:29;9.20;;;6.00;;
8500;SDS011;4288;48.484;10.024;2023-04-06T14:06:56;9.83;;;5.90;;
8500;SDS011;4288;48.484;10.024;2023-04-06T14:09:24;11.83;;;5.77;;
8500;SDS011;4288;48.484;10.024;2023-04-06T14:11:51;7.03;;;5.40;;
8500;SDS011;4288;48.484;10.024;2023-04-06T14:14:18;7.77;;;4.90;;
8500;SDS011;4288;48.484;10.024;2023-04-06T14:16:46;7.17;;;5.00;;
8500;SDS011;4288;48.484;10.024;2023-04-06T14:19:15;6.07;;;4.90;;
8500;SDS011;4288;48.484;10.024;2023-04-06T14:21:44;6.57;;;4.83;;
8500;SDS011;4288;48.484;10.024;2023-04-06T14:24:11;72.17;;;8.00;;
8500;SDS011;4288;48.484;10.024;2023-04-06T14:26:39;8.97;;;5.53;;
8500;SDS011;4288;48.484;10.024;2023-04-06T14:29:08;8.47;;;5.37;;
8500;SDS011;4288;48.484;10.024;2023-04-06T14:31:35;10.30;;;5.43;;
8500;SDS011;4288;48.484;10.024;2023-04-06T14:34:03;11.23;;;5.53;;
8500;SDS011;4288;48.484;10.024;2023-04-06T14:36:32;10.83;;;5.83;;
8500;SDS011;4288;48.484;10.024;2023-04-06T14:39:01;7.90;;;5.40;;
8500;SDS011;4288;48.484;10.024;2023-04-06T14:41:31;6.67;;;4.83;;
8500;SDS011;4288;48.484;10.024;2023-04-06T14:44:00;7.57;;;5.30;;
8500;SDS011;4288;48.484;10.024;2023-04-06T14:46:27;9.93;;;5.53;;
8500;SDS011;4288;48.484;10.024;2023-04-06T14:48:55;7.50;;;5.33;;
8500;SDS011;4288;48.484;10.024;2023-04-06T14:51:23;6.10;;;5.37;;